createdAt,value
2023-02-11T00:04:56.005Z,12.75
2023-02-11T00:10:14.961Z,12.75
2023-02-11T00:15:34.224Z,12.75
2023-02-11T00:20:53.850Z,12.75
2023-02-11T00:26:12.205Z,12.76
2023-02-11T00:31:31.597Z,12.76
2023-02-11T00:36:50.420Z,12.75
2023-02-11T00:42:10.112Z,12.75
2023-02-11T00:47:29.176Z,12.75
2023-02-11T00:52:48.813Z,12.74
2023-02-11T00:58:08.098Z,12.75
2023-02-11T01:03:27.523Z,12.75
2023-02-11T01:08:47.202Z,12.75
2023-02-11T01:14:05.993Z,12.75
2023-02-11T01:19:25.758Z,12.75
2023-02-11T01:24:44.575Z,12.75
2023-02-11T01:30:04.021Z,12.75
2023-02-11T01:35:23.327Z,12.74
2023-02-11T01:40:42.577Z,12.75
2023-02-11T01:46:02.367Z,12.75
2023-02-11T01:51:21.670Z,12.75
2023-02-11T01:56:41.088Z,12.75
2023-02-11T02:02:00.487Z,12.75
2023-02-11T02:07:20.029Z,12.75
2023-02-11T02:12:39.379Z,12.75
2023-02-11T02:19:13.576Z,12.75
2023-02-11T02:23:18.326Z,12.76
2023-02-11T02:28:37.938Z,12.74
2023-02-11T02:33:57.881Z,12.75
2023-02-11T02:39:17.289Z,12.75
2023-02-11T02:47:50.316Z,12.74
2023-02-11T03:00:34.926Z,12.75
2023-02-11T03:05:54.105Z,12.75
2023-02-11T03:11:13.788Z,12.75
2023-02-11T03:16:32.709Z,12.75
2023-02-11T03:21:52.010Z,12.75
2023-02-11T03:27:11.565Z,12.75
2023-02-11T03:32:31.200Z,12.76
2023-02-11T03:37:50.830Z,12.76
2023-02-11T03:43:09.809Z,12.75
2023-02-11T03:48:29.125Z,12.75
2023-02-11T03:53:48.821Z,12.75
2023-02-11T03:59:08.201Z,12.75
2023-02-11T04:04:27.766Z,12.75
2023-02-11T04:09:47.344Z,12.75
2023-02-11T04:20:25.698Z,12.75
2023-02-11T04:25:44.871Z,12.76
2023-02-11T04:31:04.336Z,12.75
2023-02-11T04:36:23.513Z,12.76
2023-02-11T04:41:42.325Z,12.75
2023-02-11T04:47:02.025Z,12.75
2023-02-11T04:52:20.858Z,12.76
2023-02-11T04:57:40.338Z,12.76
2023-02-11T05:03:00.112Z,12.76
2023-02-11T05:08:19.663Z,12.75
2023-02-11T05:13:39.424Z,12.75
2023-02-11T05:18:58.829Z,12.76
2023-02-11T05:24:18.365Z,12.75
2023-02-11T05:29:38.110Z,12.75
2023-02-11T05:34:57.072Z,12.74
2023-02-11T05:45:35.665Z,12.75
2023-02-11T05:50:54.562Z,12.75
2023-02-11T05:56:13.837Z,12.74
2023-02-11T06:01:32.702Z,12.76
2023-02-11T06:06:52.394Z,12.75
2023-02-11T06:12:11.636Z,12.75
2023-02-11T06:17:30.958Z,12.75
2023-02-11T06:22:50.520Z,12.75
2023-02-11T06:31:23.673Z,12.74
2023-02-11T06:38:47.197Z,12.75
2023-02-11T06:44:06.635Z,12.75
2023-02-11T06:49:25.585Z,12.74
2023-02-11T06:54:44.647Z,12.75
2023-02-11T07:00:04.940Z,12.76
2023-02-11T07:05:23.181Z,12.78
2023-02-11T07:10:42.733Z,12.81
2023-02-11T07:21:21.763Z,12.87
2023-02-11T07:26:41.252Z,12.92
2023-02-11T07:32:01.029Z,12.98
2023-02-11T07:38:35.081Z,13.02
2023-02-11T07:42:51.617Z,13.04
2023-02-11T07:48:00.169Z,13.02
2023-02-11T07:53:19.035Z,13.04
2023-02-11T08:03:58.311Z,13.08
2023-02-11T08:09:16.066Z,13.09
2023-02-11T08:14:35.422Z,13.13
2023-02-11T08:19:55.181Z,13.17
2023-02-11T08:25:14.760Z,13.25
2023-02-11T08:30:33.889Z,13.36
2023-02-11T08:35:53.248Z,13.49
2023-02-11T08:41:12.588Z,13.55
2023-02-11T08:46:31.710Z,13.57
2023-02-11T08:51:51.020Z,13.57
2023-02-11T08:57:10.549Z,14.3
2023-02-11T09:02:29.508Z,14.33
2023-02-11T09:13:07.664Z,14.13
2023-02-11T09:18:27.262Z,14.38
2023-02-11T09:23:46.494Z,14.42
2023-02-11T09:29:05.439Z,14.38
2023-02-11T09:34:24.600Z,14.43
2023-02-11T09:39:43.716Z,14.38
2023-02-11T09:45:02.025Z,14.39
2023-02-11T09:50:21.442Z,14.38
2023-02-11T09:55:40.741Z,14.38
2023-02-11T10:01:00.326Z,14.39
2023-02-11T10:06:19.543Z,14.38
2023-02-11T10:11:39.056Z,14.36
2023-02-11T10:16:58.068Z,14.4
2023-02-11T10:22:17.539Z,14.39
2023-02-11T10:27:37.116Z,14.39
2023-02-11T10:32:56.062Z,14.46
2023-02-11T10:38:15.552Z,14.38
2023-02-11T10:43:34.824Z,14.4
2023-02-11T10:48:54.629Z,14.39
2023-02-11T10:54:13.926Z,14.38
2023-02-11T10:59:32.909Z,14.38
2023-02-11T11:04:52.445Z,14.38
2023-02-11T11:10:11.570Z,14.4
2023-02-11T11:15:33.397Z,14.39
2023-02-11T11:20:50.438Z,14.4
2023-02-11T11:26:09.538Z,14.38
2023-02-11T11:31:29.297Z,14.4
2023-02-11T11:36:47.684Z,14.4
2023-02-11T11:42:06.887Z,14.38
2023-02-11T11:47:26.456Z,14.4
2023-02-11T11:52:45.619Z,14.38
2023-02-11T11:58:04.757Z,14.38
2023-02-11T12:08:43.528Z,14.4
2023-02-11T12:14:02.899Z,14.38
2023-02-11T12:20:37.141Z,14.4
2023-02-11T12:24:42.328Z,14.4
2023-02-11T12:30:01.542Z,14.38
2023-02-11T12:35:20.784Z,14.38
2023-02-11T12:40:40.100Z,14.4
2023-02-11T12:45:58.975Z,14.38
2023-02-11T12:51:18.410Z,14.39
2023-02-11T12:56:37.928Z,14.37
2023-02-11T13:01:56.922Z,14.37
2023-02-11T13:12:34.117Z,14.39
2023-02-11T13:17:53.671Z,14.38
2023-02-11T13:23:12.618Z,14.37
2023-02-11T13:28:31.456Z,14.37
2023-02-11T13:33:50.343Z,14.37
2023-02-11T13:39:09.397Z,14.37
2023-02-11T13:44:28.740Z,14.4
2023-02-11T13:49:48.221Z,14.37
2023-02-11T13:55:07.933Z,14.36
2023-02-11T14:00:27.396Z,14.37
2023-02-11T14:05:46.802Z,14.36
2023-02-11T14:11:06.294Z,14.36
2023-02-11T14:16:37.216Z,14.36
2023-02-11T14:27:04.087Z,14.38
2023-02-11T14:32:23.684Z,13.91
2023-02-11T14:37:43.252Z,13.47
2023-02-11T14:43:02.754Z,13.41
2023-02-11T14:48:22.485Z,13.31
2023-02-11T14:53:41.489Z,13.25
2023-02-11T14:59:00.490Z,13.2
2023-02-11T15:04:20.153Z,13.16
2023-02-11T15:09:39.463Z,13.11
2023-02-11T15:14:58.322Z,13.09
2023-02-11T15:20:17.632Z,13.07
2023-02-11T15:25:36.996Z,13.04
2023-02-11T15:30:56.220Z,13.01
2023-02-11T15:36:15.665Z,12.99
2023-02-11T15:41:34.521Z,12.98
2023-02-11T15:46:53.665Z,12.97
2023-02-11T15:52:13.254Z,12.96
2023-02-11T15:57:32.826Z,12.95
2023-02-11T16:02:52.101Z,12.95
2023-02-11T16:08:11.300Z,12.95
2023-02-11T16:13:30.372Z,12.94
2023-02-11T16:19:02.231Z,12.92
2023-02-11T16:24:09.355Z,12.92
2023-02-11T16:34:47.574Z,12.91
2023-02-11T16:40:06.944Z,12.91
2023-02-11T16:50:45.389Z,12.91
2023-02-11T16:56:05.214Z,12.91
2023-02-11T17:01:24.678Z,12.9
2023-02-11T17:06:44.380Z,12.9
2023-02-11T17:12:03.157Z,12.9
2023-02-11T17:17:22.833Z,12.89
2023-02-11T17:22:42.594Z,12.89
2023-02-11T17:23:07.989Z,12.86
2023-02-11T17:28:26.925Z,12.89
2023-02-11T17:33:46.480Z,12.89
2023-02-11T17:39:08.198Z,12.88
2023-02-11T17:44:24.946Z,12.88
2023-02-11T17:49:44.631Z,12.88
2023-02-11T17:55:04.080Z,12.88
2023-02-11T18:00:23.534Z,12.88
2023-02-11T18:05:42.964Z,12.88
2023-02-11T18:11:02.125Z,12.87
2023-02-11T18:16:21.890Z,12.87
2023-02-11T18:21:41.495Z,12.87
2023-02-11T18:27:00.671Z,12.86
2023-02-11T18:32:19.644Z,12.86
2023-02-11T18:37:38.899Z,12.86
2023-02-11T18:48:18.230Z,12.86
2023-02-11T18:53:37.903Z,12.85
2023-02-11T18:58:56.758Z,12.85
2023-02-11T19:04:16.017Z,12.85
2023-02-11T19:09:34.578Z,12.85
2023-02-11T19:14:54.043Z,12.85
2023-02-11T19:20:12.969Z,12.84
2023-02-11T19:25:32.624Z,12.84
2023-02-11T19:30:51.765Z,12.84
2023-02-11T19:36:10.798Z,12.83
2023-02-11T19:41:29.651Z,12.83
2023-02-11T19:46:48.500Z,12.84
2023-02-11T19:52:09.024Z,12.84
2023-02-11T19:57:28.514Z,12.83
2023-02-11T20:04:02.703Z,12.82
2023-02-11T20:08:07.249Z,12.82
2023-02-11T20:13:26.227Z,12.82
2023-02-11T20:24:04.653Z,12.83
2023-02-11T20:34:43.930Z,12.82
2023-02-11T20:40:02.875Z,12.82
2023-02-11T20:50:41.090Z,12.81
2023-02-11T20:56:00.837Z,12.81
2023-02-11T21:01:20.172Z,12.81
2023-02-11T21:06:39.918Z,12.81
2023-02-11T21:11:59.321Z,12.81
2023-02-11T21:17:18.766Z,12.81
2023-02-11T21:22:37.731Z,12.8
2023-02-11T21:27:57.484Z,12.8
2023-02-11T21:33:16.946Z,12.8
2023-02-11T21:38:35.920Z,12.8
2023-02-11T21:49:14.406Z,12.8
2023-02-11T21:55:48.569Z,12.79
2023-02-11T21:59:54.773Z,12.8
2023-02-11T22:05:14.437Z,12.79
2023-02-11T22:10:33.791Z,12.79
2023-02-11T22:15:52.418Z,12.79
2023-02-11T22:21:11.841Z,12.79
2023-02-11T22:31:50.211Z,12.8
2023-02-11T22:37:09.173Z,12.79
2023-02-11T22:42:28.235Z,12.79
2023-02-11T22:47:47.513Z,12.79
2023-02-11T22:53:06.435Z,12.8
2023-02-11T22:58:25.487Z,12.79
2023-02-11T23:03:44.582Z,12.79
2023-02-11T23:09:04.009Z,12.79
2023-02-11T23:14:23.220Z,12.78
2023-02-11T23:19:42.620Z,12.78
2023-02-11T23:25:02.329Z,12.78
2023-02-11T23:30:21.680Z,12.78
2023-02-11T23:35:40.907Z,12.78
2023-02-11T23:40:59.988Z,12.78
2023-02-11T23:46:18.940Z,12.78
2023-02-11T23:51:37.029Z,12.78
2023-02-11T23:56:56.346Z,12.78
